Time;durP1;ratioP1;P1;durP2;ratioP2;P2;SDS_P1;SDS_P2;PMS_P1;PMS_P2;Temp;Humidity;BMP_temperature;BMP_pressure;BME280_temperature;BME280_humidity;BME280_pressure;Samples;Min_cycle;Max_cycle;Signal;HPM_P1;HPM_P2
2023/06/13 00:00:32;;;;;;;4.28;1.80;;;;;;;13.84;82.75;100656.16;4994498;28;19921;-77
2023/06/13 00:02:58;;;;;;;7.27;2.57;;;;;;;13.80;86.10;100786.34;5003055;28;20072;-76
2023/06/13 00:05:24;;;;;;;4.95;1.90;;;;;;;13.66;88.44;100817.47;4986083;28;20018;-77
2023/06/13 00:07:50;;;;;;;5.45;1.95;;;;;;;13.61;90.74;100864.66;4989074;28;20510;-77
2023/06/13 00:10:16;;;;;;;6.00;1.80;;;;;;;13.68;92.47;100889.75;5014318;28;20542;-76
2023/06/13 00:12:44;;;;;;;4.67;1.97;;;;;;;13.62;92.64;100845.69;4991645;28;20061;-78
2023/06/13 00:15:11;;;;;;;3.72;2.50;;;;;;;13.58;94.59;100865.84;4992471;28;20273;-75
2023/06/13 00:17:38;;;;;;;5.38;2.13;;;;;;;13.50;95.72;100864.03;4983727;28;20464;-77
2023/06/13 00:20:05;;;;;;;4.63;1.90;;;;;;;13.38;97.12;100864.66;4996007;28;20030;-77
2023/06/13 00:22:30;;;;;;;3.60;1.95;;;;;;;13.35;98.53;100878.41;5014472;28;20493;-76
2023/06/13 00:24:56;;;;;;;2.37;1.97;;;;;;;13.26;100.00;100888.31;5003973;28;20089;-77
2023/06/13 00:27:22;;;;;;;4.33;2.10;;;;;;;13.24;100.00;100931.38;4995933;28;20047;-77
2023/06/13 00:29:47;;;;;;;5.22;2.40;;;;;;;13.18;100.00;100942.81;4999901;28;20025;-76
2023/06/13 00:32:12;;;;;;;6.23;1.90;;;;;;;13.17;100.00;100953.72;5006695;28;20641;-76
2023/06/13 00:34:38;;;;;;;4.17;2.13;;;;;;;13.10;100.00;100946.34;4990245;28;20026;-76
2023/06/13 00:37:05;;;;;;;4.32;1.83;;;;;;;13.05;100.00;100956.78;5015618;28;20059;-77
2023/06/13 00:39:31;;;;;;;3.30;1.85;;;;;;;13.00;100.00;100958.31;4986970;28;20659;-77
2023/06/13 00:42:00;;;;;;;3.10;2.10;;;;;;;12.96;100.00;100955.13;4993347;28;20077;-77
2023/06/13 00:44:25;;;;;;;4.13;2.38;;;;;;;12.95;100.00;100960.69;4996044;28;20048;-77
2023/06/13 00:46:52;;;;;;;3.20;2.10;;;;;;;12.91;100.00;100943.25;4977680;28;20029;-78
2023/06/13 00:49:17;;;;;;;;;;;;;;;12.91;100.00;100944.09;4993720;28;20030;-79
2023/06/13 00:51:44;;;;;;;;;;;;;;;12.87;100.00;100932.03;5001589;28;19913;-78
2023/06/13 00:54:13;;;;;;;8.05;1.92;;;;;;;12.79;100.00;100924.88;4997367;28;19942;-78
2023/06/13 00:56:40;;;;;;;2.90;1.80;;;;;;;12.75;100.00;100928.06;4994361;28;20037;-77
2023/06/13 00:59:07;;;;;;;3.70;2.08;;;;;;;12.71;100.00;100956.19;4993923;28;20557;-77
2023/06/13 01:01:34;;;;;;;3.28;2.08;;;;;;;12.65;100.00;100953.22;5009841;28;20029;-78
2023/06/13 01:03:59;;;;;;;5.50;2.55;;;;;;;12.63;100.00;100951.72;4975335;28;20033;-78
2023/06/13 01:06:28;;;;;;;5.70;2.30;;;;;;;12.67;100.00;100948.53;4979296;28;20363;-77
2023/06/13 01:09:00;;;;;;;5.85;2.90;;;;;;;12.64;100.00;100938.16;5008592;28;20030;-77
2023/06/13 01:11:45;;;;;;;4.13;2.10;;;;;;;12.65;100.00;100953.22;5012842;28;20030;-77
2023/06/13 01:14:30;;;;;;;4.57;1.88;;;;;;;12.60;100.00;100984.19;4977704;28;20026;-77
2023/06/13 01:17:04;;;;;;;5.15;2.20;;;;;;;12.56;100.00;101029.22;4990413;28;20064;-77
2023/06/13 01:19:41;;;;;;;3.42;2.63;;;;;;;12.55;100.00;101051.66;4978173;28;20121;-77
2023/06/13 01:22:12;;;;;;;6.47;2.53;;;;;;;12.50;100.00;101074.56;4990539;28;20034;-77
2023/06/13 01:24:49;;;;;;;5.55;2.33;;;;;;;12.42;100.00;101086.13;4980514;28;20084;-77
2023/06/13 01:27:17;;;;;;;4.45;2.42;;;;;;;12.41;100.00;101097.84;4988641;28;20061;-77
2023/06/13 01:29:43;;;;;;;4.15;2.42;;;;;;;12.33;100.00;101095.16;4973098;28;20435;-78
2023/06/13 01:32:10;;;;;;;2.83;2.03;;;;;;;12.25;100.00;101107.53;5000793;28;20033;-77
2023/06/13 01:34:36;;;;;;;5.57;2.95;;;;;;;12.25;100.00;101104.84;4975398;28;20121;-77
2023/06/13 01:37:02;;;;;;;11.80;3.42;;;;;;;12.22;100.00;101104.31;4983676;28;20117;-76
2023/06/13 01:39:28;;;;;;;;;;;;;;;12.23;100.00;101112.22;5013300;28;20041;-77
2023/06/13 01:41:53;;;;;;;;;;;;;;;12.21;100.00;101118.72;4984903;28;19918;-77
2023/06/13 01:44:19;;;;;;;4.40;2.50;;;;;;;12.14;100.00;101125.75;4990173;28;19917;-77
2023/06/13 01:47:06;;;;;;;6.38;3.00;;;;;;;12.03;100.00;101126.88;5000557;28;20029;-77
2023/06/13 01:49:54;;;;;;;7.45;3.05;;;;;;;12.05;100.00;101138.25;5003509;28;20037;-77
2023/06/13 01:52:45;;;;;;;5.28;2.55;;;;;;;12.00;100.00;101156.63;4985998;28;20735;-78
2023/06/13 01:55:22;;;;;;;5.88;2.22;;;;;;;12.00;100.00;101186.91;4983548;28;20041;-76
2023/06/13 01:58:03;;;;;;;8.05;2.63;;;;;;;11.93;100.00;101191.22;4985396;28;20029;-78
2023/06/13 02:00:30;;;;;;;11.05;2.90;;;;;;;11.92;100.00;101194.91;4990492;28;20042;-77
2023/06/13 02:02:57;;;;;;;7.40;2.03;;;;;;;11.88;100.00;101192.72;4998679;28;20030;-77
2023/06/13 02:05:25;;;;;;;5.75;2.60;;;;;;;11.87;100.00;101213.28;5003953;28;20034;-77
2023/06/13 02:07:56;;;;;;;6.75;2.75;;;;;;;11.82;100.00;101212.88;4988778;28;20014;-76
2023/06/13 02:10:22;;;;;;;10.30;2.75;;;;;;;11.78;100.00;101224.91;5003929;28;20033;-77
2023/06/13 02:12:48;;;;;;;3.83;2.55;;;;;;;11.75;100.00;101214.50;4977344;28;20026;-77
2023/06/13 02:15:13;;;;;;;4.17;2.60;;;;;;;11.76;100.00;101227.72;4992346;28;20085;-78
2023/06/13 02:17:39;;;;;;;3.47;2.00;;;;;;;11.73;100.00;101225.38;4985658;28;20024;-76
2023/06/13 02:20:06;;;;;;;6.85;2.30;;;;;;;11.69;100.00;101218.66;5013760;28;20038;-77
2023/06/13 02:22:32;;;;;;;9.13;3.38;;;;;;;11.73;100.00;101213.81;4981999;28;20069;-77
2023/06/13 02:24:59;;;;;;;6.35;2.90;;;;;;;11.66;100.00;101200.28;5002501;28;20038;-78
2023/06/13 02:27:25;;;;;;;4.45;2.47;;;;;;;11.72;100.00;101207.63;4995264;28;20568;-77
2023/06/13 02:29:51;;;;;;;5.88;3.33;;;;;;;11.64;100.00;101201.44;4962950;28;20034;-77
2023/06/13 02:32:18;;;;;;;4.30;2.70;;;;;;;11.70;100.00;101206.13;4989930;28;20022;-77
2023/06/13 02:34:44;;;;;;;3.13;2.47;;;;;;;11.68;100.00;101205.44;5010571;28;20037;-77
2023/06/13 02:37:09;;;;;;;7.40;2.75;;;;;;;11.68;100.00;101208.94;4997461;28;20021;-78
2023/06/13 02:39:35;;;;;;;7.53;3.07;;;;;;;11.63;100.00;101211.25;4989459;28;20491;-76
2023/06/13 02:42:00;;;;;;;5.77;3.03;;;;;;;11.55;100.00;101185.31;4999717;28;20430;-77
2023/06/13 02:44:26;;;;;;;6.85;2.60;;;;;;;11.59;100.00;101188.53;5005122;28;20037;-76
2023/06/13 02:46:52;;;;;;;5.90;3.13;;;;;;;11.48;100.00;101181.59;4990702;28;20044;-77
2023/06/13 02:49:17;;;;;;;4.53;2.67;;;;;;;11.47;100.00;101192.44;5006245;28;20030;-77
2023/06/13 02:51:42;;;;;;;6.47;2.63;;;;;;;11.51;100.00;101186.63;5017002;28;20022;-77
2023/06/13 02:54:08;;;;;;;6.07;2.50;;;;;;;11.48;100.00;101180.78;4980601;28;20060;-77
2023/06/13 02:56:33;;;;;;;9.83;2.63;;;;;;;11.55;100.00;101171.13;4991685;28;20144;-77
2023/06/13 02:58:59;;;;;;;8.37;3.30;;;;;;;11.44;100.00;101164.19;4994627;28;20041;-76
2023/06/13 03:01:26;;;;;;;4.57;2.90;;;;;;;11.38;100.00;101186.22;4995840;28;20026;-77
2023/06/13 03:03:52;;;;;;;5.65;3.60;;;;;;;11.37;100.00;101197.91;4998363;28;20041;-77
2023/06/13 03:06:18;;;;;;;7.85;2.90;;;;;;;11.31;100.00;101217.25;5015922;28;20619;-77
2023/06/13 03:08:45;;;;;;;8.30;2.70;;;;;;;11.26;100.00;101228.41;4998399;28;20037;-77
2023/06/13 03:11:12;;;;;;;6.53;2.78;;;;;;;11.32;100.00;101256.34;4988471;28;20030;-76
2023/06/13 03:13:39;;;;;;;8.13;2.67;;;;;;;11.27;100.00;101240.78;5002671;23;20441;-74
2023/06/13 03:16:06;;;;;;;9.93;2.87;;;;;;;11.33;100.00;101248.19;5008071;28;20043;-74
2023/06/13 03:18:32;;;;;;;7.72;2.85;;;;;;;11.32;100.00;101235.78;5009177;28;20069;-75
2023/06/13 03:20:57;;;;;;;8.60;2.53;;;;;;;11.26;100.00;101241.78;4993509;28;20026;-75
2023/06/13 03:23:23;;;;;;;7.63;2.13;;;;;;;11.22;100.00;101251.09;5013611;28;20034;-75
2023/06/13 03:25:50;;;;;;;4.22;2.50;;;;;;;11.21;100.00;101254.75;5028018;28;20036;-74
2023/06/13 03:28:16;;;;;;;7.05;2.97;;;;;;;11.19;100.00;101251.38;5023099;28;20055;-75
2023/06/13 03:30:42;;;;;;;11.90;3.40;;;;;;;11.16;100.00;101249.03;5010862;28;20292;-75
2023/06/13 03:33:09;;;;;;;5.90;2.80;;;;;;;11.10;100.00;101252.34;5022747;28;20037;-75
2023/06/13 03:35:38;;;;;;;5.20;3.08;;;;;;;11.09;100.00;101261.31;5010803;28;20029;-75
2023/06/13 03:38:05;;;;;;;5.65;2.47;;;;;;;11.07;100.00;101264.13;5011481;28;20025;-75
2023/06/13 03:40:32;;;;;;;;;;;;;;;11.06;100.00;101266.97;5011177;28;20036;-75
2023/06/13 03:42:58;;;;;;;5.45;3.30;;;;;;;11.03;100.00;101270.81;5022264;28;20442;-74
2023/06/13 03:45:24;;;;;;;5.90;2.70;;;;;;;11.09;100.00;101288.88;5006474;28;20022;-74
2023/06/13 03:47:50;;;;;;;6.32;2.80;;;;;;;11.19;100.00;101302.16;5011404;28;20059;-75
2023/06/13 03:50:16;;;;;;;8.23;2.80;;;;;;;11.30;100.00;101301.09;5024086;28;20022;-75
2023/06/13 03:52:43;;;;;;;;;;;;;;;11.40;100.00;101312.53;5026860;28;20033;-74
2023/06/13 03:55:08;;;;;;;;;;;;;;;11.50;100.00;101301.78;5004473;28;20286;-74
2023/06/13 03:57:34;;;;;;;6.43;2.80;;;;;;;11.59;100.00;101284.81;5030937;28;19917;-74
2023/06/13 03:59:59;;;;;;;11.02;3.15;;;;;;;11.68;100.00;101278.50;5026671;28;20110;-75
2023/06/13 04:02:25;;;;;;;4.57;2.40;;;;;;;11.74;100.00;101263.66;5025884;28;20402;-75
2023/06/13 04:04:52;;;;;;;3.67;2.70;;;;;;;11.84;100.00;101251.84;5006967;28;20021;-75
2023/06/13 04:07:21;;;;;;;5.50;2.97;;;;;;;11.93;100.00;101235.88;5024650;28;20107;-74
2023/06/13 04:09:47;;;;;;;6.13;2.70;;;;;;;12.03;100.00;101225.88;5028029;28;20025;-75
2023/06/13 04:12:13;;;;;;;5.05;3.00;;;;;;;12.13;100.00;101220.44;5022004;28;20509;-75
2023/06/13 04:14:38;;;;;;;5.47;3.47;;;;;;;12.22;100.00;101212.28;5028196;28;20087;-75
2023/06/13 04:17:04;;;;;;;7.43;2.78;;;;;;;12.32;100.00;101205.94;5009381;28;20061;-74
2023/06/13 04:19:31;;;;;;;5.03;2.97;;;;;;;12.45;100.00;101195.59;5012313;28;20029;-75
2023/06/13 04:21:59;;;;;;;5.60;2.67;;;;;;;12.55;100.00;101190.94;5012374;28;20095;-75
2023/06/13 04:24:25;;;;;;;5.90;2.50;;;;;;;12.64;100.00;101187.28;5026840;28;20018;-75
2023/06/13 04:26:50;;;;;;;8.65;3.65;;;;;;;12.60;100.00;101153.78;5023060;28;20040;-75
2023/06/13 04:29:17;;;;;;;9.33;2.87;;;;;;;12.80;100.00;101182.91;5020230;28;20491;-75
2023/06/13 04:31:43;;;;;;;4.13;3.72;;;;;;;12.94;100.00;101158.13;5011963;28;20557;-75
2023/06/13 04:34:10;;;;;;;5.03;2.42;;;;;;;13.13;100.00;101164.16;5021697;28;20330;-75
2023/06/13 04:36:38;;;;;;;6.78;2.33;;;;;;;13.26;100.00;101151.06;5021843;28;20072;-75
2023/06/13 04:39:06;;;;;;;4.30;2.42;;;;;;;13.37;100.00;101118.56;5023029;28;20022;-75
2023/06/13 04:41:37;;;;;;;7.07;2.80;;;;;;;13.47;100.00;101100.44;5024909;28;20038;-75
2023/06/13 04:44:09;;;;;;;8.15;2.80;;;;;;;13.49;100.00;101108.31;5020975;28;20056;-75
2023/06/13 04:46:35;;;;;;;6.45;2.58;;;;;;;13.63;100.00;101115.63;5011283;28;20025;-75
2023/06/13 04:49:04;;;;;;;5.70;2.88;;;;;;;13.81;100.00;101120.75;5028696;28;20033;-75
2023/06/13 04:51:32;;;;;;;5.97;3.03;;;;;;;13.89;100.00;101122.56;5040522;28;20098;-74
2023/06/13 04:53:58;;;;;;;6.95;2.83;;;;;;;13.88;100.00;101119.06;5027963;28;20013;-75
2023/06/13 04:56:27;;;;;;;6.18;3.60;;;;;;;13.94;100.00;101150.56;5029488;28;20076;-74
2023/06/13 04:58:53;;;;;;;6.68;3.28;;;;;;;14.04;100.00;101173.66;5011675;28;20087;-75
2023/06/13 05:01:20;;;;;;;8.60;3.72;;;;;;;14.19;100.00;101196.09;5028162;28;20478;-75
2023/06/13 05:03:47;;;;;;;3.75;2.83;;;;;;;14.43;100.00;101192.44;5024677;28;20028;-75
2023/06/13 05:06:12;;;;;;;5.38;2.92;;;;;;;14.32;100.00;101166.78;5017972;28;20469;-75
2023/06/13 05:08:38;;;;;;;4.83;2.83;;;;;;;14.47;100.00;101166.03;5017331;28;20013;-75
2023/06/13 05:11:04;;;;;;;4.20;2.63;;;;;;;14.63;100.00;101159.75;5010234;28;20045;-75
2023/06/13 05:13:29;;;;;;;5.30;2.90;;;;;;;14.89;100.00;101168.31;5009661;28;20033;-75
2023/06/13 05:15:55;;;;;;;6.43;2.97;;;;;;;14.92;100.00;101121.41;5019165;28;20129;-75
2023/06/13 05:18:24;;;;;;;3.45;2.65;;;;;;;14.89;100.00;101090.34;5019247;28;20021;-75
2023/06/13 05:20:50;;;;;;;5.40;2.70;;;;;;;15.25;100.00;101110.31;5019828;28;20037;-75
2023/06/13 05:23:16;;;;;;;6.53;2.92;;;;;;;15.51;100.00;101061.44;5012409;28;20079;-75
2023/06/13 05:25:41;;;;;;;6.03;2.57;;;;;;;15.83;100.00;101065.59;5020926;28;20112;-75
2023/06/13 05:28:07;;;;;;;4.97;2.27;;;;;;;16.04;100.00;101048.63;5009416;28;20288;-75
2023/06/13 05:30:32;;;;;;;6.00;2.40;;;;;;;16.28;100.00;101047.41;5007072;28;20422;-75
2023/06/13 05:32:58;;;;;;;3.47;2.60;;;;;;;16.67;100.00;100949.06;5009045;28;20038;-75
2023/06/13 05:35:23;;;;;;;8.25;2.97;;;;;;;17.35;100.00;100887.16;5020554;28;20060;-75
2023/06/13 05:37:50;;;;;;;6.05;2.45;;;;;;;18.07;100.00;100755.91;5021809;28;20051;-76
2023/06/13 05:40:15;;;;;;;7.57;2.45;;;;;;;19.10;100.00;100606.22;5019323;28;20386;-76
2023/06/13 05:42:41;;;;;;;4.13;2.20;;;;;;;20.08;100.00;100460.09;5009632;28;20024;-76
2023/06/13 05:45:08;;;;;;;5.07;2.10;;;;;;;20.26;100.00;100329.09;5017650;28;20782;-76
2023/06/13 05:47:34;;;;;;;7.00;2.75;;;;;;;21.21;95.48;100300.66;5005545;28;20132;-76
2023/06/13 05:50:04;;;;;;;4.55;2.28;;;;;;;21.36;89.76;100093.78;5019524;28;20533;-76
2023/06/13 05:52:30;;;;;;;7.15;2.30;;;;;;;21.60;87.30;100103.38;5023653;28;20087;-76
2023/06/13 05:54:55;;;;;;;3.97;2.00;;;;;;;21.71;83.88;100009.28;5020875;28;20041;-76
2023/06/13 05:57:21;;;;;;;7.40;2.10;;;;;;;22.36;80.77;99995.81;5018155;28;20391;-75
2023/06/13 05:59:46;;;;;;;6.83;2.03;;;;;;;22.37;80.04;100079.84;5022357;28;20021;-75
2023/06/13 06:02:12;;;;;;;6.77;2.67;;;;;;;22.65;77.99;100057.00;5021085;28;20675;-75
2023/06/13 06:04:38;;;;;;;;;;;;;;;22.79;75.50;99955.91;5020624;28;20757;-75
2023/06/13 06:07:04;;;;;;;5.15;2.17;;;;;;;22.48;74.30;99896.66;5004878;28;19974;-76
2023/06/13 06:09:30;;;;;;;6.68;1.80;;;;;;;22.82;74.07;100028.81;5018185;28;20587;-76
2023/06/13 06:11:55;;;;;;;8.00;2.30;;;;;;;22.58;73.03;99955.75;5023948;28;20033;-76
2023/06/13 06:14:21;;;;;;;3.88;2.10;;;;;;;23.09;72.02;100051.38;5022750;28;20025;-76
2023/06/13 06:16:47;;;;;;;4.93;2.22;;;;;;;23.06;70.31;99888.56;5020115;28;20453;-76
2023/06/13 06:19:12;;;;;;;6.38;2.33;;;;;;;23.24;69.45;99919.13;5020957;28;20410;-76
2023/06/13 06:21:37;;;;;;;6.70;2.75;;;;;;;23.50;68.94;99972.59;5022094;28;20033;-75
2023/06/13 06:24:03;;;;;;;8.77;2.37;;;;;;;23.26;67.65;99827.91;5018651;28;20033;-75
2023/06/13 06:26:28;;;;;;;5.15;2.40;;;;;;;23.47;67.30;99896.88;5021574;28;20036;-75
2023/06/13 06:28:54;;;;;;;5.43;2.30;;;;;;;23.35;67.70;99975.28;5022667;28;20489;-75
2023/06/13 06:31:19;;;;;;;3.03;1.92;;;;;;;21.73;67.35;99533.63;5017898;28;20498;-75
2023/06/13 06:33:44;;;;;;;4.83;2.20;;;;;;;22.49;71.14;100237.47;5024413;28;20028;-75
2023/06/13 06:36:10;;;;;;;3.60;2.57;;;;;;;23.28;68.92;100217.88;5019481;28;20083;-75
2023/06/13 06:38:35;;;;;;;9.57;3.17;;;;;;;23.63;68.44;100212.97;5010113;28;20026;-75
2023/06/13 06:41:01;;;;;;;6.72;2.60;;;;;;;23.43;68.42;100184.50;5017528;28;20371;-75
2023/06/13 06:43:26;;;;;;;3.90;2.13;;;;;;;23.72;68.61;100284.97;5016341;28;20041;-75
2023/06/13 06:45:52;;;;;;;13.98;3.00;;;;;;;23.22;69.05;100248.03;5022553;28;20298;-75
2023/06/13 06:48:18;;;;;;;11.50;2.93;;;;;;;23.45;69.17;100282.31;5017652;28;20117;-75
2023/06/13 06:50:43;;;;;;;7.97;2.27;;;;;;;23.79;70.00;100499.03;5011174;28;20068;-75
2023/06/13 06:53:08;;;;;;;4.77;2.23;;;;;;;23.48;68.53;100202.78;5001507;28;20026;-76
2023/06/13 06:55:34;;;;;;;5.27;2.60;;;;;;;23.85;68.34;100344.50;5007069;28;20037;-75
2023/06/13 06:57:59;;;;;;;6.30;2.27;;;;;;;23.97;69.18;100443.28;5024408;28;21098;-75
2023/06/13 07:00:25;;;;;;;9.55;2.28;;;;;;;23.54;67.63;100156.22;5012819;28;20033;-75
2023/06/13 07:02:51;;;;;;;15.50;2.85;;;;;;;24.16;68.12;100418.38;5007938;28;20029;-76
2023/06/13 07:05:17;;;;;;;6.75;2.22;;;;;;;23.80;67.88;100274.44;5010991;28;20140;-75
2023/06/13 07:07:44;;;;;;;9.98;2.80;;;;;;;24.02;66.96;100238.03;5011891;28;20113;-75
2023/06/13 07:10:10;;;;;;;4.53;2.20;;;;;;;24.14;67.51;100360.53;5022292;28;20036;-75
2023/06/13 07:12:37;;;;;;;5.47;2.55;;;;;;;24.20;68.00;100416.78;5008004;28;20120;-75
2023/06/13 07:15:03;;;;;;;5.50;2.70;;;;;;;23.72;66.15;100077.88;5016620;28;20045;-75
2023/06/13 07:17:30;;;;;;;7.10;3.05;;;;;;;22.94;68.77;100242.59;5016555;28;20018;-75
2023/06/13 07:19:55;;;;;;;4.78;2.80;;;;;;;23.00;68.26;100193.69;5028315;28;20592;-75
2023/06/13 07:22:21;;;;;;;9.10;2.50;;;;;;;23.30;68.35;100253.03;5016045;28;20044;-76
2023/06/13 07:24:46;;;;;;;8.88;2.55;;;;;;;23.82;66.55;100268.72;5015295;28;20060;-75
2023/06/13 07:27:11;;;;;;;6.10;2.13;;;;;;;23.96;66.24;100234.47;5011653;28;20026;-75
2023/06/13 07:29:37;;;;;;;7.57;2.88;;;;;;;23.50;65.33;100073.38;5018875;28;20037;-75
2023/06/13 07:32:03;;;;;;;8.00;3.13;;;;;;;24.02;64.88;100170.72;5025148;28;20037;-75
2023/06/13 07:34:28;;;;;;;7.15;2.95;;;;;;;23.78;63.58;99916.84;5022703;28;20038;-75
2023/06/13 07:36:54;;;;;;;6.07;2.20;;;;;;;23.41;63.28;99785.44;5025026;28;20038;-75
2023/06/13 07:39:20;;;;;;;6.32;2.50;;;;;;;22.69;64.72;99821.44;5023334;28;20033;-76
2023/06/13 07:41:46;;;;;;;;;;;;;;;22.79;64.20;99801.59;5020636;28;20036;-76
2023/06/13 07:44:12;;;;;;;5.07;3.50;;;;;;;23.33;64.64;100023.75;5015632;28;19936;-75
2023/06/13 07:46:37;;;;;;;9.48;2.78;;;;;;;23.56;64.11;100006.94;5026323;28;20109;-75
2023/06/13 07:49:03;;;;;;;8.05;3.15;;;;;;;21.32;62.34;99137.13;5011066;28;20083;-76
2023/06/13 07:51:29;;;;;;;7.97;2.50;;;;;;;20.74;65.51;99503.44;5024530;28;20017;-75
2023/06/13 07:53:54;;;;;;;8.93;2.80;;;;;;;22.12;66.65;100119.28;5028768;28;20033;-75
2023/06/13 07:56:20;;;;;;;11.50;2.92;;;;;;;21.93;64.15;99741.03;5010975;28;20040;-75
2023/06/13 07:58:45;;;;;;;10.02;2.70;;;;;;;22.03;62.22;99478.56;5026427;28;20033;-76
2023/06/13 08:01:11;;;;;;;6.30;3.27;;;;;;;22.99;63.06;99917.09;5011052;28;20080;-75
2023/06/13 08:03:36;;;;;;;5.70;2.33;;;;;;;23.04;61.08;99685.75;5024890;28;20282;-75
2023/06/13 08:06:02;;;;;;;4.77;2.40;;;;;;;22.36;60.84;99476.47;5001969;28;20330;-74
2023/06/13 08:08:27;;;;;;;11.60;3.13;;;;;;;20.44;62.52;99106.38;5009859;28;20622;-75
2023/06/13 08:10:53;;;;;;;8.53;3.70;;;;;;;20.82;63.98;99535.53;5017623;28;20318;-75
2023/06/13 08:13:19;;;;;;;6.70;3.40;;;;;;;21.66;62.36;99578.16;5022085;28;20059;-75
2023/06/13 08:15:44;;;;;;;;;;;;;;;22.87;61.68;99880.00;5010016;28;20040;-75
2023/06/13 08:18:10;;;;;;;4.85;2.70;;;;;;;23.53;60.38;99854.09;5017757;28;19919;-75
2023/06/13 08:20:36;;;;;;;3.47;2.63;;;;;;;23.64;59.05;99710.53;5024951;28;20034;-75
2023/06/13 08:23:01;;;;;;;7.90;3.22;;;;;;;23.72;58.17;99622.81;5014919;28;20069;-75
2023/06/13 08:25:26;;;;;;;6.60;3.20;;;;;;;24.04;57.90;99646.16;5019837;28;20159;-76
2023/06/13 08:27:52;;;;;;;5.87;3.20;;;;;;;23.14;58.47;99487.06;5021214;28;20018;-75
2023/06/13 08:30:18;;;;;;;3.43;2.80;;;;;;;23.66;57.58;99569.41;5012927;28;20115;-76
2023/06/13 08:32:46;;;;;;;9.70;3.20;;;;;;;22.14;57.71;99092.38;5026433;28;20470;-75
2023/06/13 08:35:12;;;;;;;7.22;3.08;;;;;;;22.62;56.86;99186.28;4994384;28;20084;-76
2023/06/13 08:37:38;;;;;;;;;;;;;;;22.32;55.41;98911.56;5013662;28;20097;-74
2023/06/13 08:40:05;;;;;;;8.07;3.30;;;;;;;21.85;57.62;99094.97;5028519;28;19996;-75
2023/06/13 08:42:31;;;;;;;6.85;3.05;;;;;;;23.08;58.04;99597.03;5021887;28;20037;-75
2023/06/13 08:44:57;;;;;;;10.70;3.17;;;;;;;23.37;56.80;99504.69;5037072;28;20587;-75
2023/06/13 08:47:23;;;;;;;6.90;2.88;;;;;;;23.06;56.71;99425.00;5018477;28;20021;-75
2023/06/13 08:49:48;;;;;;;6.03;2.90;;;;;;;24.09;56.07;99719.75;5016389;28;20498;-75
2023/06/13 08:52:17;;;;;;;8.13;3.00;;;;;;;24.42;55.09;99615.44;5009906;28;20022;-76
2023/06/13 08:54:44;;;;;;;5.28;2.80;;;;;;;24.55;54.02;99504.88;5009692;28;20034;-74
2023/06/13 08:57:14;;;;;;;6.32;2.72;;;;;;;24.31;53.15;99308.41;5009419;28;20018;-75
2023/06/13 08:59:42;;;;;;;4.97;2.67;;;;;;;23.29;53.46;98990.66;5022486;28;20386;-75
2023/06/13 09:02:09;;;;;;;8.40;2.75;;;;;;;23.28;54.67;99247.69;5014778;28;20471;-75
2023/06/13 09:04:36;;;;;;;4.60;2.50;;;;;;;24.34;54.42;99596.13;5011426;28;20462;-75
2023/06/13 09:07:03;;;;;;;14.45;2.72;;;;;;;24.68;52.74;99486.22;5010209;28;20045;-76
2023/06/13 09:09:29;;;;;;;8.80;2.90;;;;;;;25.64;52.05;99631.97;5009411;28;20497;-75
2023/06/13 09:11:55;;;;;;;10.93;2.97;;;;;;;25.52;51.47;99492.22;5024677;28;20025;-75
2023/06/13 09:14:21;;;;;;;8.48;2.45;;;;;;;26.07;50.98;99568.34;5043040;23;20041;-90
2023/06/13 09:16:50;;;;;;;8.00;2.42;;;;;;;25.05;49.27;98920.44;4991063;28;20536;-89
2023/06/13 09:19:16;;;;;;;4.03;2.80;;;;;;;25.11;50.22;99221.50;4981871;28;20045;-87
2023/06/13 09:21:43;;;;;;;8.20;2.60;;;;;;;26.10;48.90;99352.50;4974980;28;20040;-90
2023/06/13 09:24:09;;;;;;;5.28;2.60;;;;;;;25.39;46.94;98744.47;4985801;28;20038;-93
2023/06/13 09:26:34;;;;;;;4.80;2.42;;;;;;;24.99;47.03;98665.88;4979168;28;20071;-87
2023/06/13 09:29:00;;;;;;;5.57;2.53;;;;;;;23.49;49.02;98630.97;4985173;28;20425;-87
2023/06/13 09:31:29;;;;;;;4.95;2.60;;;;;;;24.53;50.08;99215.19;5013524;28;20075;-86
2023/06/13 09:33:58;;;;;;;6.80;2.20;;;;;;;25.11;49.54;99320.63;4975919;28;20113;-87
2023/06/13 09:36:25;;;;;;;5.03;2.38;;;;;;;25.87;49.23;99506.53;5012664;28;20018;-86
2023/06/13 09:38:50;;;;;;;6.60;2.97;;;;;;;26.11;48.03;99356.88;4987852;28;20081;-87
2023/06/13 09:41:19;;;;;;;5.07;2.67;;;;;;;23.91;46.47;98235.97;4978432;28;20069;-89
2023/06/13 09:43:45;;;;;;;5.47;2.60;;;;;;;22.97;48.37;98372.47;4992257;28;20037;-84
2023/06/13 09:46:11;;;;;;;5.80;2.10;;;;;;;22.86;50.82;98762.00;4973742;28;20019;-91
2023/06/13 09:48:37;;;;;;;5.00;2.50;;;;;;;23.36;50.67;98988.41;4994331;28;20300;-92
2023/06/13 09:51:21;;;;;;;8.23;2.50;;;;;;;23.08;51.52;98990.06;4995716;28;20500;-84
2023/06/13 09:53:49;;;;;;;6.32;3.08;;;;;;;23.39;50.65;98955.97;4982972;28;20033;-84
2023/06/13 09:56:15;;;;;;;6.93;2.28;;;;;;;25.20;50.15;99534.63;4977065;28;20049;-83
2023/06/13 09:58:41;;;;;;;6.85;2.42;;;;;;;26.09;48.60;99585.28;4987238;28;20077;-83
2023/06/13 10:01:14;;;;;;;3.22;2.30;;;;;;;25.32;46.97;98944.25;4976542;28;20042;-84
2023/06/13 10:03:41;;;;;;;11.10;2.25;;;;;;;23.10;49.26;98533.34;5001896;28;20484;-84
2023/06/13 10:06:06;;;;;;;;;;;;;;;24.92;49.55;99336.16;4976421;28;20021;-88
2023/06/13 10:08:33;;;;;;;5.38;2.30;;;;;;;25.01;48.12;99091.44;4993975;28;20368;-92
2023/06/13 10:11:06;;;;;;;7.22;2.30;;;;;;;25.96;49.01;99596.94;4973913;28;20034;-84
2023/06/13 10:13:39;;;;;;;5.55;2.40;;;;;;;26.21;47.16;99335.94;4995365;28;20117;-85
2023/06/13 10:16:07;;;;;;;7.45;2.72;;;;;;;25.62;46.59;99008.41;5007051;28;20034;-91
2023/06/13 10:18:36;;;;;;;6.43;2.65;;;;;;;24.61;47.89;98886.34;4970000;28;20018;-85
2023/06/13 10:21:03;;;;;;;3.72;2.38;;;;;;;25.38;48.49;99300.06;4988955;28;20041;-88
2023/06/13 10:23:33;;;;;;;4.68;3.13;;;;;;;26.37;48.13;99542.47;4991634;28;20052;-88
2023/06/13 10:26:06;;;;;;;6.53;2.60;;;;;;;26.24;47.27;99303.31;4996882;28;20030;-87
2023/06/13 10:29:01;;;;;;;4.93;2.17;;;;;;;24.91;47.17;98736.75;4995169;28;20492;-88
2023/06/13 10:31:44;;;;;;;5.45;2.38;;;;;;;26.19;47.21;99349.91;4966867;28;20037;-88
2023/06/13 10:34:50;;;;;;;3.95;2.15;;;;;;;26.05;46.72;99135.78;4993293;28;20044;-88
2023/06/13 10:37:34;;;;;;;6.57;2.28;;;;;;;26.55;46.25;99329.31;4977371;28;20484;-89
2023/06/13 10:40:38;;;;;;;3.42;2.10;;;;;;;25.46;45.73;98792.09;4973684;28;20120;-89
2023/06/13 10:43:12;;;;;;;5.10;2.00;;;;;;;26.22;48.01;99496.19;4987703;28;20480;-88
2023/06/13 10:45:42;;;;;;;5.20;2.47;;;;;;;26.22;47.28;99405.94;4990073;28;20037;-88
2023/06/13 10:48:08;;;;;;;9.35;2.72;;;;;;;27.11;46.68;99585.66;4984711;28;20034;-88
2023/06/13 10:50:41;;;;;;;9.37;2.30;;;;;;;27.78;44.86;99506.53;4974335;28;20024;-89
2023/06/13 10:53:24;;;;;;;4.30;2.40;;;;;;;26.34;44.34;98782.56;4991253;28;20041;-88
2023/06/13 10:55:50;;;;;;;4.90;2.60;;;;;;;26.40;46.70;99279.22;4976527;28;20040;-88
2023/06/13 10:58:16;;;;;;;6.78;2.13;;;;;;;26.99;45.97;99393.63;4981364;28;20391;-88
2023/06/13 11:00:41;;;;;;;;;;;;;;;27.62;44.49;99323.53;4993443;28;20042;-89
2023/06/13 11:03:12;;;;;;;5.32;2.47;;;;;;;27.60;44.08;99244.31;4980393;28;19975;-89
2023/06/13 11:06:04;;;;;;;7.00;2.97;;;;;;;27.94;43.89;99306.84;4981484;28;20082;-90
2023/06/13 11:08:32;;;;;;;4.18;2.70;;;;;;;27.77;43.96;99232.69;4981208;28;20034;-88
2023/06/13 11:10:58;;;;;;;8.45;2.90;;;;;;;25.83;45.39;98833.06;4997244;28;20017;-88
2023/06/13 11:13:26;;;;;;;4.32;2.55;;;;;;;26.80;45.10;99227.53;4986380;28;20476;-89
2023/06/13 11:15:56;;;;;;;4.97;2.78;;;;;;;27.10;44.37;99135.66;4983390;28;20050;-89
2023/06/13 11:18:22;;;;;;;5.53;2.78;;;;;;;27.98;44.84;99516.31;4965813;28;20034;-89
2023/06/13 11:20:54;;;;;;;4.40;2.43;;;;;;;27.15;44.57;99208.66;4986019;28;20022;-88
2023/06/13 11:23:36;;;;;;;5.28;3.10;;;;;;;27.58;45.11;99443.91;4999487;28;20042;-89
2023/06/13 11:26:03;;;;;;;5.05;2.90;;;;;;;26.84;45.91;99321.63;4989365;28;20038;-88
2023/06/13 11:28:30;;;;;;;16.55;3.90;;;;;;;27.91;44.87;99539.75;4963260;28;20018;-88